Terminal Aerodrome Forecast
Issued by NWS

Home | Current Version | Previous Version | Text Only | Print | Product List | Glossary On
Versions: 1 2 3 4 5 6 7 8 9 10 11 12 13 14 15 16
000
FTUS43 KSGF 181720
TAFJLN
TAF
KJLN 181720Z 1818/1918 21017G22KT P6SM SKC
     FM190000 20013KT P6SM SKC WS015/23045KT
     FM191500 20016G24KT P6SM FEW250=

USA.gov is the U.S. government's official web portal to all federal, state and local government web resources and services.